sensor_id;sensor_type;location;lat;lon;timestamp;P1;durP1;ratioP1;P2;durP2;ratioP2
49502;SDS011;35409;48.776;9.204;2022-12-20T00:00:26;31.92;;;17.35;;
49502;SDS011;35409;48.776;9.204;2022-12-20T00:02:51;28.35;;;16.25;;
49502;SDS011;35409;48.776;9.204;2022-12-20T00:05:17;34.17;;;18.20;;
49502;SDS011;35409;48.776;9.204;2022-12-20T00:07:43;32.67;;;18.13;;
49502;SDS011;35409;48.776;9.204;2022-12-20T00:10:08;28.52;;;15.40;;
49502;SDS011;35409;48.776;9.204;2022-12-20T00:12:34;25.00;;;13.95;;
49502;SDS011;35409;48.776;9.204;2022-12-20T00:15:00;23.33;;;14.43;;
49502;SDS011;35409;48.776;9.204;2022-12-20T00:17:25;27.90;;;17.05;;
49502;SDS011;35409;48.776;9.204;2022-12-20T00:19:51;36.75;;;20.52;;
49502;SDS011;35409;48.776;9.204;2022-12-20T00:22:16;32.83;;;18.35;;
49502;SDS011;35409;48.776;9.204;2022-12-20T00:24:42;32.17;;;18.45;;
49502;SDS011;35409;48.776;9.204;2022-12-20T00:27:08;35.67;;;20.08;;
49502;SDS011;35409;48.776;9.204;2022-12-20T00:29:34;36.97;;;20.60;;
49502;SDS011;35409;48.776;9.204;2022-12-20T00:31:59;33.20;;;19.98;;
49502;SDS011;35409;48.776;9.204;2022-12-20T00:34:25;32.55;;;19.20;;
49502;SDS011;35409;48.776;9.204;2022-12-20T00:36:50;26.95;;;17.17;;
49502;SDS011;35409;48.776;9.204;2022-12-20T00:39:16;32.08;;;17.20;;
49502;SDS011;35409;48.776;9.204;2022-12-20T00:41:42;29.23;;;18.10;;
49502;SDS011;35409;48.776;9.204;2022-12-20T00:44:07;26.45;;;15.98;;
49502;SDS011;35409;48.776;9.204;2022-12-20T00:46:33;23.92;;;14.82;;
49502;SDS011;35409;48.776;9.204;2022-12-20T00:48:59;23.77;;;14.10;;
49502;SDS011;35409;48.776;9.204;2022-12-20T00:51:26;24.10;;;14.15;;
49502;SDS011;35409;48.776;9.204;2022-12-20T00:53:53;22.05;;;14.35;;
49502;SDS011;35409;48.776;9.204;2022-12-20T00:56:22;26.23;;;15.32;;
49502;SDS011;35409;48.776;9.204;2022-12-20T00:58:47;28.50;;;17.13;;
49502;SDS011;35409;48.776;9.204;2022-12-20T01:01:20;33.53;;;19.63;;
49502;SDS011;35409;48.776;9.204;2022-12-20T01:03:48;32.90;;;19.30;;
49502;SDS011;35409;48.776;9.204;2022-12-20T01:06:17;33.43;;;19.17;;
49502;SDS011;35409;48.776;9.204;2022-12-20T01:08:46;35.55;;;20.00;;
49502;SDS011;35409;48.776;9.204;2022-12-20T01:11:13;35.28;;;18.52;;
49502;SDS011;35409;48.776;9.204;2022-12-20T01:13:45;29.63;;;16.77;;
49502;SDS011;35409;48.776;9.204;2022-12-20T01:16:16;31.05;;;16.98;;
49502;SDS011;35409;48.776;9.204;2022-12-20T01:18:45;31.30;;;17.77;;
49502;SDS011;35409;48.776;9.204;2022-12-20T01:21:12;28.73;;;16.85;;
49502;SDS011;35409;48.776;9.204;2022-12-20T01:23:39;32.40;;;18.23;;
49502;SDS011;35409;48.776;9.204;2022-12-20T01:26:05;33.03;;;18.88;;
49502;SDS011;35409;48.776;9.204;2022-12-20T01:28:33;35.72;;;20.25;;
49502;SDS011;35409;48.776;9.204;2022-12-20T01:30:59;34.83;;;19.52;;
49502;SDS011;35409;48.776;9.204;2022-12-20T01:33:25;35.53;;;19.88;;
49502;SDS011;35409;48.776;9.204;2022-12-20T01:35:58;33.50;;;19.17;;
49502;SDS011;35409;48.776;9.204;2022-12-20T01:38:26;34.58;;;20.00;;
49502;SDS011;35409;48.776;9.204;2022-12-20T01:40:52;33.00;;;19.77;;
49502;SDS011;35409;48.776;9.204;2022-12-20T01:43:19;30.33;;;18.52;;
49502;SDS011;35409;48.776;9.204;2022-12-20T01:45:45;33.95;;;18.98;;
49502;SDS011;35409;48.776;9.204;2022-12-20T01:48:11;29.13;;;17.55;;
49502;SDS011;35409;48.776;9.204;2022-12-20T01:50:40;27.83;;;17.77;;
49502;SDS011;35409;48.776;9.204;2022-12-20T01:53:06;32.83;;;17.35;;
49502;SDS011;35409;48.776;9.204;2022-12-20T01:55:32;28.40;;;16.55;;
49502;SDS011;35409;48.776;9.204;2022-12-20T01:58:00;30.02;;;17.05;;
49502;SDS011;35409;48.776;9.204;2022-12-20T02:00:32;27.17;;;16.42;;
49502;SDS011;35409;48.776;9.204;2022-12-20T02:02:58;32.85;;;18.25;;
49502;SDS011;35409;48.776;9.204;2022-12-20T02:05:28;36.15;;;20.38;;
49502;SDS011;35409;48.776;9.204;2022-12-20T02:07:58;32.22;;;18.08;;
49502;SDS011;35409;48.776;9.204;2022-12-20T02:10:26;30.80;;;18.42;;
49502;SDS011;35409;48.776;9.204;2022-12-20T02:16:12;29.38;;;17.33;;
49502;SDS011;35409;48.776;9.204;2022-12-20T02:18:47;28.65;;;16.77;;
49502;SDS011;35409;48.776;9.204;2022-12-20T02:21:36;29.92;;;16.52;;
49502;SDS011;35409;48.776;9.204;2022-12-20T02:24:12;28.52;;;17.13;;
49502;SDS011;35409;48.776;9.204;2022-12-20T02:32:30;24.75;;;14.65;;
49502;SDS011;35409;48.776;9.204;2022-12-20T02:35:04;24.63;;;14.25;;
49502;SDS011;35409;48.776;9.204;2022-12-20T02:37:32;27.67;;;15.48;;
49502;SDS011;35409;48.776;9.204;2022-12-20T02:39:57;23.30;;;14.73;;
49502;SDS011;35409;48.776;9.204;2022-12-20T02:42:23;28.25;;;15.40;;
49502;SDS011;35409;48.776;9.204;2022-12-20T02:44:52;24.13;;;14.93;;
49502;SDS011;35409;48.776;9.204;2022-12-20T02:47:45;26.70;;;15.00;;
49502;SDS011;35409;48.776;9.204;2022-12-20T02:50:22;31.27;;;17.63;;
49502;SDS011;35409;48.776;9.204;2022-12-20T02:52:52;28.00;;;15.85;;
49502;SDS011;35409;48.776;9.204;2022-12-20T02:55:23;32.00;;;17.02;;
49502;SDS011;35409;48.776;9.204;2022-12-20T02:58:13;29.27;;;15.98;;
49502;SDS011;35409;48.776;9.204;2022-12-20T03:00:45;28.10;;;16.17;;
49502;SDS011;35409;48.776;9.204;2022-12-20T03:03:13;24.70;;;14.38;;
49502;SDS011;35409;48.776;9.204;2022-12-20T03:05:49;27.40;;;15.80;;
49502;SDS011;35409;48.776;9.204;2022-12-20T03:08:17;29.90;;;16.40;;
49502;SDS011;35409;48.776;9.204;2022-12-20T03:10:44;25.48;;;15.65;;
49502;SDS011;35409;48.776;9.204;2022-12-20T03:13:10;27.15;;;15.88;;
49502;SDS011;35409;48.776;9.204;2022-12-20T03:15:35;30.08;;;16.90;;
49502;SDS011;35409;48.776;9.204;2022-12-20T03:18:01;28.80;;;16.00;;
49502;SDS011;35409;48.776;9.204;2022-12-20T03:20:27;25.30;;;15.35;;
49502;SDS011;35409;48.776;9.204;2022-12-20T03:22:52;25.17;;;15.50;;
49502;SDS011;35409;48.776;9.204;2022-12-20T03:25:18;29.08;;;16.00;;
49502;SDS011;35409;48.776;9.204;2022-12-20T03:27:44;23.15;;;14.48;;
49502;SDS011;35409;48.776;9.204;2022-12-20T03:30:10;25.77;;;14.73;;
49502;SDS011;35409;48.776;9.204;2022-12-20T03:32:36;26.15;;;15.60;;
49502;SDS011;35409;48.776;9.204;2022-12-20T03:35:01;23.95;;;14.52;;
49502;SDS011;35409;48.776;9.204;2022-12-20T03:37:27;24.90;;;14.80;;
49502;SDS011;35409;48.776;9.204;2022-12-20T03:39:53;26.58;;;14.95;;
49502;SDS011;35409;48.776;9.204;2022-12-20T03:42:19;24.45;;;14.32;;
49502;SDS011;35409;48.776;9.204;2022-12-20T03:44:44;23.73;;;15.30;;
49502;SDS011;35409;48.776;9.204;2022-12-20T03:47:10;24.83;;;14.57;;
49502;SDS011;35409;48.776;9.204;2022-12-20T03:49:36;24.65;;;14.63;;
49502;SDS011;35409;48.776;9.204;2022-12-20T03:52:01;23.58;;;13.25;;
49502;SDS011;35409;48.776;9.204;2022-12-20T03:54:27;24.50;;;13.70;;
49502;SDS011;35409;48.776;9.204;2022-12-20T03:56:53;22.83;;;14.15;;
49502;SDS011;35409;48.776;9.204;2022-12-20T03:59:18;24.63;;;14.38;;
49502;SDS011;35409;48.776;9.204;2022-12-20T04:01:44;25.27;;;14.77;;
49502;SDS011;35409;48.776;9.204;2022-12-20T04:04:11;21.23;;;13.90;;
49502;SDS011;35409;48.776;9.204;2022-12-20T04:06:40;26.73;;;15.40;;
49502;SDS011;35409;48.776;9.204;2022-12-20T04:09:06;26.08;;;15.55;;
49502;SDS011;35409;48.776;9.204;2022-12-20T04:11:32;26.80;;;14.02;;
49502;SDS011;35409;48.776;9.204;2022-12-20T04:13:57;27.02;;;15.13;;
49502;SDS011;35409;48.776;9.204;2022-12-20T04:16:24;23.35;;;13.82;;
49502;SDS011;35409;48.776;9.204;2022-12-20T04:18:51;20.60;;;13.43;;
49502;SDS011;35409;48.776;9.204;2022-12-20T04:21:21;24.92;;;14.98;;
49502;SDS011;35409;48.776;9.204;2022-12-20T04:23:48;24.88;;;14.25;;
49502;SDS011;35409;48.776;9.204;2022-12-20T04:26:14;23.80;;;14.50;;
49502;SDS011;35409;48.776;9.204;2022-12-20T04:28:40;22.58;;;14.13;;
49502;SDS011;35409;48.776;9.204;2022-12-20T04:31:06;24.35;;;15.05;;
49502;SDS011;35409;48.776;9.204;2022-12-20T04:33:34;23.17;;;15.25;;
49502;SDS011;35409;48.776;9.204;2022-12-20T04:36:00;28.25;;;16.13;;
49502;SDS011;35409;48.776;9.204;2022-12-20T04:38:27;24.98;;;13.50;;
49502;SDS011;35409;48.776;9.204;2022-12-20T04:40:52;26.88;;;14.68;;
49502;SDS011;35409;48.776;9.204;2022-12-20T04:43:19;22.60;;;13.60;;
49502;SDS011;35409;48.776;9.204;2022-12-20T04:45:49;28.17;;;13.80;;
49502;SDS011;35409;48.776;9.204;2022-12-20T04:48:22;25.50;;;13.73;;
49502;SDS011;35409;48.776;9.204;2022-12-20T04:50:53;22.02;;;12.63;;
49502;SDS011;35409;48.776;9.204;2022-12-20T04:53:20;28.35;;;14.13;;
49502;SDS011;35409;48.776;9.204;2022-12-20T04:56:05;24.42;;;13.95;;
49502;SDS011;35409;48.776;9.204;2022-12-20T04:58:34;21.08;;;13.23;;
49502;SDS011;35409;48.776;9.204;2022-12-20T05:00:59;24.45;;;12.88;;
49502;SDS011;35409;48.776;9.204;2022-12-20T05:03:25;23.08;;;12.73;;
49502;SDS011;35409;48.776;9.204;2022-12-20T05:05:51;22.33;;;12.27;;
49502;SDS011;35409;48.776;9.204;2022-12-20T05:08:17;22.92;;;12.15;;
49502;SDS011;35409;48.776;9.204;2022-12-20T05:10:43;18.17;;;11.70;;
49502;SDS011;35409;48.776;9.204;2022-12-20T05:13:08;19.23;;;11.48;;
49502;SDS011;35409;48.776;9.204;2022-12-20T05:15:34;19.33;;;11.93;;
49502;SDS011;35409;48.776;9.204;2022-12-20T05:17:59;19.92;;;11.00;;
49502;SDS011;35409;48.776;9.204;2022-12-20T05:20:26;18.13;;;11.20;;
49502;SDS011;35409;48.776;9.204;2022-12-20T05:22:52;14.80;;;9.40;;
49502;SDS011;35409;48.776;9.204;2022-12-20T05:25:37;17.85;;;11.77;;
49502;SDS011;35409;48.776;9.204;2022-12-20T05:28:25;19.50;;;11.10;;
49502;SDS011;35409;48.776;9.204;2022-12-20T05:30:51;18.60;;;11.45;;
49502;SDS011;35409;48.776;9.204;2022-12-20T05:33:17;18.65;;;11.15;;
49502;SDS011;35409;48.776;9.204;2022-12-20T05:35:42;19.27;;;12.43;;
49502;SDS011;35409;48.776;9.204;2022-12-20T05:38:08;22.92;;;13.70;;
49502;SDS011;35409;48.776;9.204;2022-12-20T05:40:33;24.58;;;15.20;;
49502;SDS011;35409;48.776;9.204;2022-12-20T05:42:59;26.67;;;14.75;;
49502;SDS011;35409;48.776;9.204;2022-12-20T05:45:25;21.42;;;14.02;;
49502;SDS011;35409;48.776;9.204;2022-12-20T05:47:51;22.45;;;12.60;;
49502;SDS011;35409;48.776;9.204;2022-12-20T05:50:16;20.27;;;13.30;;
49502;SDS011;35409;48.776;9.204;2022-12-20T05:52:43;20.70;;;13.15;;
49502;SDS011;35409;48.776;9.204;2022-12-20T05:55:09;23.45;;;14.85;;
49502;SDS011;35409;48.776;9.204;2022-12-20T05:57:34;24.85;;;13.98;;
49502;SDS011;35409;48.776;9.204;2022-12-20T06:00:00;24.40;;;13.60;;
49502;SDS011;35409;48.776;9.204;2022-12-20T06:02:28;20.55;;;13.70;;
49502;SDS011;35409;48.776;9.204;2022-12-20T06:04:53;24.85;;;13.80;;
49502;SDS011;35409;48.776;9.204;2022-12-20T06:07:19;23.85;;;13.85;;
49502;SDS011;35409;48.776;9.204;2022-12-20T06:09:45;24.75;;;14.07;;
49502;SDS011;35409;48.776;9.204;2022-12-20T06:12:11;24.33;;;13.07;;
49502;SDS011;35409;48.776;9.204;2022-12-20T06:14:37;24.75;;;12.50;;
49502;SDS011;35409;48.776;9.204;2022-12-20T06:17:03;19.48;;;11.52;;
49502;SDS011;35409;48.776;9.204;2022-12-20T06:19:29;16.30;;;10.55;;
49502;SDS011;35409;48.776;9.204;2022-12-20T06:21:54;23.25;;;11.57;;
49502;SDS011;35409;48.776;9.204;2022-12-20T06:24:20;17.48;;;10.90;;
49502;SDS011;35409;48.776;9.204;2022-12-20T06:26:49;20.20;;;11.88;;
49502;SDS011;35409;48.776;9.204;2022-12-20T06:29:15;22.42;;;12.60;;
49502;SDS011;35409;48.776;9.204;2022-12-20T06:31:42;25.27;;;13.32;;
49502;SDS011;35409;48.776;9.204;2022-12-20T06:34:08;22.20;;;13.45;;
49502;SDS011;35409;48.776;9.204;2022-12-20T06:36:34;22.58;;;12.45;;
49502;SDS011;35409;48.776;9.204;2022-12-20T06:39:00;26.50;;;14.85;;
49502;SDS011;35409;48.776;9.204;2022-12-20T06:41:25;26.38;;;15.25;;
49502;SDS011;35409;48.776;9.204;2022-12-20T06:43:51;28.48;;;15.52;;
49502;SDS011;35409;48.776;9.204;2022-12-20T06:46:17;26.10;;;14.60;;
49502;SDS011;35409;48.776;9.204;2022-12-20T06:48:42;27.73;;;15.15;;
49502;SDS011;35409;48.776;9.204;2022-12-20T06:51:08;22.92;;;13.55;;
49502;SDS011;35409;48.776;9.204;2022-12-20T06:53:35;19.23;;;12.32;;
49502;SDS011;35409;48.776;9.204;2022-12-20T06:56:00;15.48;;;9.90;;
49502;SDS011;35409;48.776;9.204;2022-12-20T06:58:26;19.17;;;11.23;;
49502;SDS011;35409;48.776;9.204;2022-12-20T07:00:52;20.52;;;10.98;;
49502;SDS011;35409;48.776;9.204;2022-12-20T07:03:18;18.27;;;11.20;;
49502;SDS011;35409;48.776;9.204;2022-12-20T07:05:44;22.33;;;11.88;;
49502;SDS011;35409;48.776;9.204;2022-12-20T07:08:16;20.33;;;11.02;;
49502;SDS011;35409;48.776;9.204;2022-12-20T07:10:43;23.63;;;10.88;;
49502;SDS011;35409;48.776;9.204;2022-12-20T07:13:08;21.30;;;9.45;;
49502;SDS011;35409;48.776;9.204;2022-12-20T07:15:34;17.65;;;10.80;;
49502;SDS011;35409;48.776;9.204;2022-12-20T07:18:00;19.90;;;10.90;;
49502;SDS011;35409;48.776;9.204;2022-12-20T07:20:25;22.88;;;11.93;;
49502;SDS011;35409;48.776;9.204;2022-12-20T07:22:51;24.55;;;13.82;;
49502;SDS011;35409;48.776;9.204;2022-12-20T07:25:17;28.15;;;14.35;;
49502;SDS011;35409;48.776;9.204;2022-12-20T07:27:45;30.27;;;17.20;;
49502;SDS011;35409;48.776;9.204;2022-12-20T07:30:11;35.37;;;17.13;;
49502;SDS011;35409;48.776;9.204;2022-12-20T07:32:38;28.10;;;15.80;;
49502;SDS011;35409;48.776;9.204;2022-12-20T07:35:04;28.27;;;16.42;;
49502;SDS011;35409;48.776;9.204;2022-12-20T07:37:30;29.23;;;16.23;;
49502;SDS011;35409;48.776;9.204;2022-12-20T07:39:55;25.25;;;15.07;;
49502;SDS011;35409;48.776;9.204;2022-12-20T07:42:21;29.55;;;15.90;;
49502;SDS011;35409;48.776;9.204;2022-12-20T07:44:47;25.92;;;15.02;;
49502;SDS011;35409;48.776;9.204;2022-12-20T07:47:12;25.95;;;15.02;;
49502;SDS011;35409;48.776;9.204;2022-12-20T07:49:38;27.27;;;15.73;;
49502;SDS011;35409;48.776;9.204;2022-12-20T07:52:03;24.15;;;14.98;;
49502;SDS011;35409;48.776;9.204;2022-12-20T07:54:33;23.45;;;15.65;;
49502;SDS011;35409;48.776;9.204;2022-12-20T07:57:05;23.67;;;14.40;;
49502;SDS011;35409;48.776;9.204;2022-12-20T07:59:39;28.98;;;15.57;;
49502;SDS011;35409;48.776;9.204;2022-12-20T08:02:08;24.98;;;14.80;;
49502;SDS011;35409;48.776;9.204;2022-12-20T08:04:41;30.13;;;15.82;;
49502;SDS011;35409;48.776;9.204;2022-12-20T08:07:07;28.15;;;15.88;;
49502;SDS011;35409;48.776;9.204;2022-12-20T08:09:34;24.40;;;14.93;;
49502;SDS011;35409;48.776;9.204;2022-12-20T08:12:03;24.63;;;14.50;;
49502;SDS011;35409;48.776;9.204;2022-12-20T08:14:29;24.40;;;14.30;;
49502;SDS011;35409;48.776;9.204;2022-12-20T08:16:55;23.35;;;14.52;;
49502;SDS011;35409;48.776;9.204;2022-12-20T08:19:21;22.30;;;14.85;;
49502;SDS011;35409;48.776;9.204;2022-12-20T08:21:47;25.77;;;14.77;;
49502;SDS011;35409;48.776;9.204;2022-12-20T08:24:12;24.25;;;15.18;;
49502;SDS011;35409;48.776;9.204;2022-12-20T08:26:38;25.77;;;14.70;;
49502;SDS011;35409;48.776;9.204;2022-12-20T08:29:04;27.35;;;14.77;;
49502;SDS011;35409;48.776;9.204;2022-12-20T08:31:30;27.48;;;15.02;;
49502;SDS011;35409;48.776;9.204;2022-12-20T08:33:55;28.33;;;14.95;;
49502;SDS011;35409;48.776;9.204;2022-12-20T08:36:21;22.33;;;13.85;;
49502;SDS011;35409;48.776;9.204;2022-12-20T08:38:46;24.65;;;14.07;;
49502;SDS011;35409;48.776;9.204;2022-12-20T08:41:13;22.60;;;13.77;;
49502;SDS011;35409;48.776;9.204;2022-12-20T08:43:39;25.25;;;14.82;;
49502;SDS011;35409;48.776;9.204;2022-12-20T08:46:06;24.73;;;14.23;;
49502;SDS011;35409;48.776;9.204;2022-12-20T08:48:33;21.10;;;13.07;;
49502;SDS011;35409;48.776;9.204;2022-12-20T08:51:00;21.80;;;13.52;;
49502;SDS011;35409;48.776;9.204;2022-12-20T08:53:28;26.48;;;14.70;;
49502;SDS011;35409;48.776;9.204;2022-12-20T08:56:10;23.33;;;13.83;;
49502;SDS011;35409;48.776;9.204;2022-12-20T08:58:48;22.08;;;13.95;;
49502;SDS011;35409;48.776;9.204;2022-12-20T09:01:17;30.45;;;15.13;;
49502;SDS011;35409;48.776;9.204;2022-12-20T09:03:44;23.08;;;13.23;;
49502;SDS011;35409;48.776;9.204;2022-12-20T09:06:11;20.73;;;12.52;;
49502;SDS011;35409;48.776;9.204;2022-12-20T09:08:39;20.83;;;12.17;;
49502;SDS011;35409;48.776;9.204;2022-12-20T09:11:09;23.00;;;13.07;;
49502;SDS011;35409;48.776;9.204;2022-12-20T09:13:40;23.60;;;12.80;;
49502;SDS011;35409;48.776;9.204;2022-12-20T09:16:07;26.63;;;12.88;;
49502;SDS011;35409;48.776;9.204;2022-12-20T09:18:34;20.90;;;14.13;;
49502;SDS011;35409;48.776;9.204;2022-12-20T09:21:00;18.38;;;12.10;;
49502;SDS011;35409;48.776;9.204;2022-12-20T09:23:27;21.35;;;13.18;;
49502;SDS011;35409;48.776;9.204;2022-12-20T09:25:54;21.42;;;12.57;;
49502;SDS011;35409;48.776;9.204;2022-12-20T09:28:20;24.67;;;13.73;;
49502;SDS011;35409;48.776;9.204;2022-12-20T09:30:46;28.70;;;13.27;;
49502;SDS011;35409;48.776;9.204;2022-12-20T09:33:12;27.38;;;16.73;;
49502;SDS011;35409;48.776;9.204;2022-12-20T09:35:44;24.20;;;14.95;;
49502;SDS011;35409;48.776;9.204;2022-12-20T09:38:10;27.33;;;13.98;;
49502;SDS011;35409;48.776;9.204;2022-12-20T09:40:36;21.63;;;14.05;;
49502;SDS011;35409;48.776;9.204;2022-12-20T09:43:02;26.23;;;14.30;;
49502;SDS011;35409;48.776;9.204;2022-12-20T09:45:34;23.75;;;14.13;;
49502;SDS011;35409;48.776;9.204;2022-12-20T09:48:00;26.50;;;13.85;;
49502;SDS011;35409;48.776;9.204;2022-12-20T09:53:37;21.63;;;12.50;;
49502;SDS011;35409;48.776;9.204;2022-12-20T09:56:29;22.48;;;13.13;;
49502;SDS011;35409;48.776;9.204;2022-12-20T09:58:58;25.38;;;13.20;;
49502;SDS011;35409;48.776;9.204;2022-12-20T10:01:28;20.70;;;12.93;;
49502;SDS011;35409;48.776;9.204;2022-12-20T10:03:56;20.02;;;12.90;;
49502;SDS011;35409;48.776;9.204;2022-12-20T10:06:29;21.02;;;12.93;;
49502;SDS011;35409;48.776;9.204;2022-12-20T10:08:59;21.17;;;12.10;;
49502;SDS011;35409;48.776;9.204;2022-12-20T10:17:08;26.30;;;15.05;;
49502;SDS011;35409;48.776;9.204;2022-12-20T10:20:04;25.58;;;14.48;;
49502;SDS011;35409;48.776;9.204;2022-12-20T10:25:19;22.85;;;13.43;;
49502;SDS011;35409;48.776;9.204;2022-12-20T10:27:50;22.58;;;12.98;;
49502;SDS011;35409;48.776;9.204;2022-12-20T10:30:22;25.80;;;13.32;;
49502;SDS011;35409;48.776;9.204;2022-12-20T10:32:50;26.55;;;13.68;;
49502;SDS011;35409;48.776;9.204;2022-12-20T10:35:28;38.42;;;21.00;;
49502;SDS011;35409;48.776;9.204;2022-12-20T10:38:11;30.30;;;18.55;;
49502;SDS011;35409;48.776;9.204;2022-12-20T10:40:42;28.65;;;17.00;;
49502;SDS011;35409;48.776;9.204;2022-12-20T10:43:14;25.70;;;14.90;;
49502;SDS011;35409;48.776;9.204;2022-12-20T10:45:55;29.27;;;16.17;;
49502;SDS011;35409;48.776;9.204;2022-12-20T10:50:54;24.27;;;14.02;;
49502;SDS011;35409;48.776;9.204;2022-12-20T10:53:22;24.05;;;14.55;;
49502;SDS011;35409;48.776;9.204;2022-12-20T10:55:49;23.27;;;13.60;;
49502;SDS011;35409;48.776;9.204;2022-12-20T10:58:20;21.90;;;13.57;;
49502;SDS011;35409;48.776;9.204;2022-12-20T11:01:02;30.30;;;15.25;;
49502;SDS011;35409;48.776;9.204;2022-12-20T11:04:20;33.72;;;17.90;;
49502;SDS011;35409;48.776;9.204;2022-12-20T11:06:54;31.80;;;17.17;;
49502;SDS011;35409;48.776;9.204;2022-12-20T11:12:14;32.90;;;16.23;;
49502;SDS011;35409;48.776;9.204;2022-12-20T11:14:44;30.02;;;16.33;;
49502;SDS011;35409;48.776;9.204;2022-12-20T11:30:19;34.95;;;16.98;;
49502;SDS011;35409;48.776;9.204;2022-12-20T11:36:06;34.53;;;17.17;;
49502;SDS011;35409;48.776;9.204;2022-12-20T11:41:10;36.65;;;18.85;;
49502;SDS011;35409;48.776;9.204;2022-12-20T11:44:08;27.90;;;16.92;;
49502;SDS011;35409;48.776;9.204;2022-12-20T11:52:42;24.42;;;13.00;;
49502;SDS011;35409;48.776;9.204;2022-12-20T11:58:28;17.92;;;9.98;;
49502;SDS011;35409;48.776;9.204;2022-12-20T12:00:33;15.07;;;8.70;;
49502;SDS011;35409;48.776;9.204;2022-12-20T12:03:09;14.77;;;8.38;;
49502;SDS011;35409;48.776;9.204;2022-12-20T12:05:56;14.07;;;8.00;;
49502;SDS011;35409;48.776;9.204;2022-12-20T12:08:54;12.68;;;8.10;;
49502;SDS011;35409;48.776;9.204;2022-12-20T12:11:34;11.23;;;6.85;;
49502;SDS011;35409;48.776;9.204;2022-12-20T12:14:05;13.15;;;7.25;;
49502;SDS011;35409;48.776;9.204;2022-12-20T12:16:39;10.30;;;6.63;;
49502;SDS011;35409;48.776;9.204;2022-12-20T12:19:09;9.70;;;6.40;;
49502;SDS011;35409;48.776;9.204;2022-12-20T12:21:41;12.70;;;6.75;;
49502;SDS011;35409;48.776;9.204;2022-12-20T12:24:23;9.82;;;6.50;;
49502;SDS011;35409;48.776;9.204;2022-12-20T12:26:54;13.32;;;8.13;;
49502;SDS011;35409;48.776;9.204;2022-12-20T12:29:20;14.27;;;8.32;;
49502;SDS011;35409;48.776;9.204;2022-12-20T12:31:54;15.52;;;8.77;;
49502;SDS011;35409;48.776;9.204;2022-12-20T12:47:05;9.50;;;5.38;;
49502;SDS011;35409;48.776;9.204;2022-12-20T12:49:35;9.43;;;5.53;;
49502;SDS011;35409;48.776;9.204;2022-12-20T12:52:02;10.60;;;5.80;;
49502;SDS011;35409;48.776;9.204;2022-12-20T12:54:40;9.25;;;5.90;;
49502;SDS011;35409;48.776;9.204;2022-12-20T12:59:40;10.90;;;6.55;;
49502;SDS011;35409;48.776;9.204;2022-12-20T13:04:55;16.10;;;8.20;;
49502;SDS011;35409;48.776;9.204;2022-12-20T13:16:05;17.30;;;10.43;;
49502;SDS011;35409;48.776;9.204;2022-12-20T13:20:34;17.60;;;10.98;;
49502;SDS011;35409;48.776;9.204;2022-12-20T13:25:31;12.23;;;8.40;;
49502;SDS011;35409;48.776;9.204;2022-12-20T13:31:33;14.10;;;7.78;;
49502;SDS011;35409;48.776;9.204;2022-12-20T13:33:46;15.15;;;9.07;;
49502;SDS011;35409;48.776;9.204;2022-12-20T13:38:56;23.92;;;11.23;;
49502;SDS011;35409;48.776;9.204;2022-12-20T13:41:40;18.45;;;10.15;;
49502;SDS011;35409;48.776;9.204;2022-12-20T13:46:41;21.25;;;11.52;;
49502;SDS011;35409;48.776;9.204;2022-12-20T13:49:58;19.40;;;11.10;;
49502;SDS011;35409;48.776;9.204;2022-12-20T13:54:39;20.88;;;11.13;;
49502;SDS011;35409;48.776;9.204;2022-12-20T13:57:17;17.60;;;10.85;;
49502;SDS011;35409;48.776;9.204;2022-12-20T14:00:13;15.75;;;10.68;;
49502;SDS011;35409;48.776;9.204;2022-12-20T14:02:41;19.67;;;11.20;;
49502;SDS011;35409;48.776;9.204;2022-12-20T14:08:15;20.58;;;12.88;;
49502;SDS011;35409;48.776;9.204;2022-12-20T14:10:46;22.15;;;11.88;;
49502;SDS011;35409;48.776;9.204;2022-12-20T14:13:19;15.82;;;9.38;;
49502;SDS011;35409;48.776;9.204;2022-12-20T14:15:47;14.05;;;8.55;;
49502;SDS011;35409;48.776;9.204;2022-12-20T14:18:16;11.30;;;6.70;;
49502;SDS011;35409;48.776;9.204;2022-12-20T14:20:52;11.85;;;6.72;;
49502;SDS011;35409;48.776;9.204;2022-12-20T14:23:24;8.65;;;5.00;;
49502;SDS011;35409;48.776;9.204;2022-12-20T14:25:58;6.20;;;4.30;;
49502;SDS011;35409;48.776;9.204;2022-12-20T14:28:29;9.50;;;4.63;;
49502;SDS011;35409;48.776;9.204;2022-12-20T14:30:59;8.07;;;5.10;;
49502;SDS011;35409;48.776;9.204;2022-12-20T14:33:40;7.88;;;4.90;;
49502;SDS011;35409;48.776;9.204;2022-12-20T14:36:27;9.32;;;5.88;;
49502;SDS011;35409;48.776;9.204;2022-12-20T14:38:52;16.85;;;9.20;;
49502;SDS011;35409;48.776;9.204;2022-12-20T14:41:37;18.13;;;10.82;;
49502;SDS011;35409;48.776;9.204;2022-12-20T14:46:32;15.35;;;9.90;;
49502;SDS011;35409;48.776;9.204;2022-12-20T14:51:47;18.17;;;10.10;;
49502;SDS011;35409;48.776;9.204;2022-12-20T14:54:17;18.33;;;10.50;;
49502;SDS011;35409;48.776;9.204;2022-12-20T14:56:48;17.75;;;10.52;;
49502;SDS011;35409;48.776;9.204;2022-12-20T14:59:16;19.08;;;10.93;;
49502;SDS011;35409;48.776;9.204;2022-12-20T15:01:49;18.52;;;10.90;;
49502;SDS011;35409;48.776;9.204;2022-12-20T15:04:32;18.40;;;11.07;;
49502;SDS011;35409;48.776;9.204;2022-12-20T15:06:59;21.50;;;11.30;;
49502;SDS011;35409;48.776;9.204;2022-12-20T15:09:26;21.33;;;12.40;;
49502;SDS011;35409;48.776;9.204;2022-12-20T15:11:52;22.58;;;12.15;;
49502;SDS011;35409;48.776;9.204;2022-12-20T15:17:00;17.52;;;10.68;;
49502;SDS011;35409;48.776;9.204;2022-12-20T15:19:36;16.77;;;11.00;;
49502;SDS011;35409;48.776;9.204;2022-12-20T15:22:02;17.27;;;10.93;;
49502;SDS011;35409;48.776;9.204;2022-12-20T15:24:28;20.23;;;10.50;;
49502;SDS011;35409;48.776;9.204;2022-12-20T15:26:54;17.73;;;10.85;;
49502;SDS011;35409;48.776;9.204;2022-12-20T15:29:21;20.15;;;12.50;;
49502;SDS011;35409;48.776;9.204;2022-12-20T15:34:22;16.92;;;9.63;;
49502;SDS011;35409;48.776;9.204;2022-12-20T15:36:57;18.80;;;10.18;;
49502;SDS011;35409;48.776;9.204;2022-12-20T15:39:24;15.75;;;9.32;;
49502;SDS011;35409;48.776;9.204;2022-12-20T15:41:50;14.23;;;8.18;;
49502;SDS011;35409;48.776;9.204;2022-12-20T15:44:18;16.33;;;9.25;;
49502;SDS011;35409;48.776;9.204;2022-12-20T15:46:47;17.15;;;9.73;;
49502;SDS011;35409;48.776;9.204;2022-12-20T15:49:14;14.25;;;8.60;;
49502;SDS011;35409;48.776;9.204;2022-12-20T15:51:40;16.20;;;10.25;;
49502;SDS011;35409;48.776;9.204;2022-12-20T15:54:24;20.70;;;10.52;;
49502;SDS011;35409;48.776;9.204;2022-12-20T15:56:51;18.00;;;10.82;;
49502;SDS011;35409;48.776;9.204;2022-12-20T15:59:20;19.58;;;11.52;;
49502;SDS011;35409;48.776;9.204;2022-12-20T16:01:46;18.45;;;11.63;;
49502;SDS011;35409;48.776;9.204;2022-12-20T16:04:16;15.80;;;10.63;;
49502;SDS011;35409;48.776;9.204;2022-12-20T16:06:44;17.80;;;10.93;;
49502;SDS011;35409;48.776;9.204;2022-12-20T16:09:12;18.70;;;11.10;;
49502;SDS011;35409;48.776;9.204;2022-12-20T16:11:37;25.08;;;13.38;;
49502;SDS011;35409;48.776;9.204;2022-12-20T16:14:03;23.27;;;13.77;;
49502;SDS011;35409;48.776;9.204;2022-12-20T16:16:33;23.42;;;13.30;;
49502;SDS011;35409;48.776;9.204;2022-12-20T16:19:00;19.58;;;12.80;;
49502;SDS011;35409;48.776;9.204;2022-12-20T16:21:34;21.65;;;12.82;;
49502;SDS011;35409;48.776;9.204;2022-12-20T16:24:08;26.63;;;13.00;;